Time;durP1;ratioP1;P1;durP2;ratioP2;P2;SDS_P1;SDS_P2;PMS_P1;PMS_P2;Temp;Humidity;BMP_temperature;BMP_pressure;BME280_temperature;BME280_humidity;BME280_pressure;Samples;Min_cycle;Max_cycle;Signal;HPM_P1;HPM_P2
2023/09/05 00:00:10;;;;;;;7.10;2.13;;;16.50;98.40;;;;;;5038037;28;20543;-61
2023/09/05 00:02:40;;;;;;;3.97;1.60;;;16.40;97.30;;;;;;5051191;28;20425;-60
2023/09/05 00:05:09;;;;;;;2.23;1.43;;;16.50;97.10;;;;;;5050493;28;20417;-60
2023/09/05 00:07:36;;;;;;;3.10;1.63;;;16.50;98.10;;;;;;5036241;28;20421;-60
2023/09/05 00:10:06;;;;;;;4.10;1.73;;;16.50;98.00;;;;;;5027883;28;20827;-60
2023/09/05 00:12:32;;;;;;;3.87;1.77;;;16.40;98.90;;;;;;5032447;28;21257;-61
2023/09/05 00:14:58;;;;;;;8.20;2.20;;;16.30;99.10;;;;;;5037166;28;20405;-61
2023/09/05 00:17:24;;;;;;;3.30;1.90;;;16.20;99.30;;;;;;5043923;28;20416;-61
2023/09/05 00:19:51;;;;;;;4.10;1.97;;;16.00;99.30;;;;;;5050583;28;20190;-60
2023/09/05 00:22:19;;;;;;;3.70;1.80;;;16.00;99.70;;;;;;5041036;28;20634;-60
2023/09/05 00:24:45;;;;;;;4.17;1.77;;;15.90;99.50;;;;;;5020945;28;20504;-60
2023/09/05 00:27:11;;;;;;;2.90;1.40;;;15.80;99.90;;;;;;5031003;28;20433;-60
2023/09/05 00:29:42;;;;;;;3.20;1.57;;;15.70;99.90;;;;;;5030327;28;20204;-60
2023/09/05 00:32:09;;;;;;;3.00;1.50;;;15.70;99.90;;;;;;5026993;28;20468;-60
2023/09/05 00:34:36;;;;;;;3.40;1.90;;;15.70;99.10;;;;;;5025923;28;20520;-60
2023/09/05 00:37:04;;;;;;;7.87;2.07;;;15.70;99.20;;;;;;5026209;28;20557;-60
2023/09/05 00:39:31;;;;;;;2.70;1.53;;;15.90;97.70;;;;;;5032873;28;20417;-60
2023/09/05 00:41:57;;;;;;;3.20;1.83;;;16.00;97.50;;;;;;5034941;28;20429;-60
2023/09/05 00:44:24;;;;;;;4.20;1.43;;;16.10;96.90;;;;;;5050557;28;20503;-60
2023/09/05 00:46:50;;;;;;;2.87;1.33;;;16.20;96.90;;;;;;5028808;28;20269;-60
2023/09/05 00:49:16;;;;;;;4.63;1.73;;;16.20;97.70;;;;;;5028434;28;20519;-61
2023/09/05 00:51:45;;;;;;;3.20;1.77;;;16.10;97.60;;;;;;5028446;28;20997;-60
2023/09/05 00:54:11;;;;;;;6.20;1.90;;;16.10;97.80;;;;;;5031349;28;20475;-60
2023/09/05 00:56:37;;;;;;;4.33;1.87;;;16.10;97.40;;;;;;5034404;28;20422;-60
2023/09/05 00:59:05;;;;;;;3.30;1.33;;;16.10;97.70;;;;;;5033538;28;20217;-60
2023/09/05 01:01:30;;;;;;;2.93;1.10;;;15.90;98.40;;;;;;5027949;28;20595;-60
2023/09/05 01:03:59;;;;;;;7.20;1.70;;;15.90;98.20;;;;;;5029851;28;20408;-60
2023/09/05 01:06:51;;;;;;;3.43;1.73;;;15.80;98.60;;;;;;5037072;28;20565;-60
2023/09/05 01:09:45;;;;;;;4.07;1.80;;;15.70;99.00;;;;;;5030073;28;20513;-60
2023/09/05 01:12:11;;;;;;;4.13;1.67;;;15.60;99.50;;;;;;5026486;28;20551;-61
2023/09/05 01:14:36;;;;;;;2.83;1.43;;;15.50;99.80;;;;;;5031059;28;20884;-61
2023/09/05 01:17:05;;;;;;;4.93;1.63;;;15.40;99.90;;;;;;5040005;28;20626;-60
2023/09/05 01:19:34;;;;;;;2.50;1.70;;;15.30;99.90;;;;;;5046311;28;20197;-60
2023/09/05 01:22:21;;;;;;;2.70;1.47;;;15.20;99.90;;;;;;5037900;28;20780;-60
2023/09/05 01:24:49;;;;;;;7.93;1.83;;;15.10;99.90;;;;;;5036947;28;20460;-61
2023/09/05 01:27:19;;;;;;;3.40;1.93;;;15.10;99.90;;;;;;5049892;28;20519;-60
2023/09/05 01:29:46;;;;;;;4.30;1.60;;;15.00;99.90;;;;;;5050464;28;20971;-61
2023/09/05 01:32:12;;;;;;;2.70;1.43;;;14.90;99.90;;;;;;5032931;28;20492;-60
2023/09/05 01:34:38;;;;;;;3.40;1.80;;;14.90;99.90;;;;;;5035217;28;20444;-60
2023/09/05 01:37:04;;;;;;;2.90;1.50;;;14.80;99.90;;;;;;5045599;28;20185;-60
2023/09/05 01:39:29;;;;;;;3.37;1.70;;;14.70;99.90;;;;;;5050211;28;20451;-60
2023/09/05 01:41:58;;;;;;;3.70;1.80;;;14.60;99.90;;;;;;5036433;28;20194;-60
2023/09/05 01:44:23;;;;;;;4.13;1.80;;;14.60;99.90;;;;;;5049996;28;20852;-60
2023/09/05 01:46:49;;;;;;;4.23;1.97;;;14.70;99.90;;;;;;5034000;28;20508;-60
2023/09/05 01:49:14;;;;;;;4.03;1.97;;;14.60;99.90;;;;;;5033132;28;20179;-60
2023/09/05 01:51:40;;;;;;;8.77;2.27;;;14.50;99.90;;;;;;5036269;28;20221;-60
2023/09/05 01:54:06;;;;;;;2.57;1.33;;;14.50;99.90;;;;;;5029493;28;20187;-60
2023/09/05 01:56:31;;;;;;;3.00;1.67;;;14.50;99.90;;;;;;5047568;28;20281;-60
2023/09/05 01:58:57;;;;;;;2.53;1.17;;;14.40;99.90;;;;;;5044754;28;20231;-60
2023/09/05 02:01:22;;;;;;;6.80;2.17;;;14.40;99.90;;;;;;5048605;28;20243;-60
2023/09/05 02:03:48;;;;;;;4.13;1.73;;;14.40;99.90;;;;;;5053085;28;20182;-60
2023/09/05 02:06:14;;;;;;;6.10;2.00;;;14.30;99.90;;;;;;5050518;28;20242;-60
2023/09/05 02:08:40;;;;;;;4.40;1.83;;;14.20;99.90;;;;;;5033396;28;20261;-60
2023/09/05 02:11:06;;;;;;;3.83;2.03;;;14.20;99.90;;;;;;5030513;28;20207;-60
2023/09/05 02:13:31;;;;;;;3.50;1.60;;;14.10;99.90;;;;;;5034241;28;20966;-60
2023/09/05 02:15:57;;;;;;;4.10;1.90;;;14.10;99.90;;;;;;5048194;28;20910;-61
2023/09/05 02:18:23;;;;;;;5.33;2.47;;;14.00;99.90;;;;;;5040796;28;20362;-60
2023/09/05 02:20:49;;;;;;;4.97;1.93;;;13.90;99.90;;;;;;5033443;28;20491;-60
2023/09/05 02:23:15;;;;;;;3.57;1.50;;;13.90;99.90;;;;;;5033903;28;20186;-60
2023/09/05 02:25:41;;;;;;;4.30;1.77;;;13.80;99.90;;;;;;5032919;28;20288;-60
2023/09/05 02:28:07;;;;;;;5.17;1.77;;;13.80;99.90;;;;;;5041667;28;20228;-60
2023/09/05 02:30:35;;;;;;;2.30;1.43;;;13.70;99.90;;;;;;5051325;28;20455;-60
2023/09/05 02:33:01;;;;;;;2.57;1.40;;;13.70;99.90;;;;;;5032845;28;20186;-60
2023/09/05 02:35:27;;;;;;;5.37;2.03;;;13.70;99.90;;;;;;5030426;28;20730;-60
2023/09/05 02:37:55;;;;;;;3.20;1.97;;;13.70;99.90;;;;;;5034921;28;20274;-60
2023/09/05 02:40:22;;;;;;;7.90;1.97;;;13.60;99.90;;;;;;5041906;28;20423;-60
2023/09/05 02:42:47;;;;;;;4.43;1.83;;;13.60;99.90;;;;;;5034154;28;20433;-60
2023/09/05 02:45:14;;;;;;;5.73;2.20;;;13.60;99.90;;;;;;5034525;28;20911;-61
2023/09/05 02:47:40;;;;;;;6.50;1.50;;;13.60;99.90;;;;;;5028623;28;20269;-60
2023/09/05 02:50:07;;;;;;;4.63;1.87;;;13.60;99.90;;;;;;5036910;28;20421;-60
2023/09/05 02:52:33;;;;;;;2.83;1.37;;;13.50;99.90;;;;;;5045061;28;20472;-60
2023/09/05 02:55:00;;;;;;;2.93;1.67;;;13.40;99.90;;;;;;5030278;28;20413;-60
2023/09/05 02:57:26;;;;;;;5.10;1.73;;;13.50;99.90;;;;;;5031967;28;20424;-60
2023/09/05 02:59:53;;;;;;;2.60;1.50;;;13.40;99.90;;;;;;5038365;28;20413;-60
2023/09/05 03:02:19;;;;;;;6.40;2.17;;;13.40;99.90;;;;;;5035727;28;20179;-60
2023/09/05 03:04:45;;;;;;;3.93;1.53;;;13.30;99.90;;;;;;5045488;28;20451;-60
2023/09/05 03:07:11;;;;;;;4.23;1.73;;;13.20;99.90;;;;;;5033328;28;20421;-60
2023/09/05 03:09:38;;;;;;;3.53;1.90;;;13.20;99.90;;;;;;5027643;28;20468;-60
2023/09/05 03:12:05;;;;;;;7.17;1.70;;;13.20;99.90;;;;;;5032567;28;20206;-61
2023/09/05 03:14:30;;;;;;;3.50;2.13;;;13.10;99.90;;;;;;5048385;28;20746;-60
2023/09/05 03:16:57;;;;;;;3.10;1.80;;;13.10;99.90;;;;;;5051593;28;20416;-60
2023/09/05 03:19:22;;;;;;;3.40;1.80;;;12.90;99.90;;;;;;5036554;28;20297;-61
2023/09/05 03:21:49;;;;;;;10.07;2.23;;;13.00;99.90;;;;;;5039912;28;20873;-60
2023/09/05 03:24:17;;;;;;;11.63;3.27;;;13.00;99.90;;;;;;5043550;28;20179;-60
2023/09/05 03:26:46;;;;;;;7.90;1.87;;;12.90;99.90;;;;;;5027640;28;20425;-60
2023/09/05 03:29:13;;;;;;;3.40;1.50;;;12.90;99.90;;;;;;5024714;28;20929;-60
2023/09/05 03:31:39;;;;;;;3.70;1.77;;;12.80;99.90;;;;;;5033796;28;20470;-60
2023/09/05 03:34:05;;;;;;;5.10;2.17;;;12.80;99.90;;;;;;5031996;28;20905;-60
2023/09/05 03:36:32;;;;;;;4.40;2.27;;;12.90;99.90;;;;;;5031833;28;20417;-60
2023/09/05 03:38:58;;;;;;;4.27;2.13;;;12.80;99.90;;;;;;5033780;28;20165;-60
2023/09/05 03:41:23;;;;;;;3.43;1.80;;;12.90;99.90;;;;;;5034560;28;20753;-60
2023/09/05 03:43:49;;;;;;;3.07;1.70;;;12.90;99.90;;;;;;5032264;28;20182;-60
2023/09/05 03:46:14;;;;;;;4.70;2.00;;;12.80;99.90;;;;;;5042472;28;20196;-60
2023/09/05 03:48:40;;;;;;;2.73;1.30;;;12.80;99.90;;;;;;5052097;28;20277;-61
2023/09/05 03:51:06;;;;;;;2.93;1.60;;;12.70;99.90;;;;;;5051605;28;20225;-60
2023/09/05 03:53:32;;;;;;;5.23;1.67;;;12.60;99.90;;;;;;5035843;28;20179;-60
2023/09/05 03:55:57;;;;;;;4.53;2.13;;;12.70;99.90;;;;;;5042749;28;20218;-60
2023/09/05 03:58:23;;;;;;;2.80;1.30;;;12.60;99.90;;;;;;5038419;28;20426;-60
2023/09/05 04:00:48;;;;;;;4.47;2.07;;;12.60;99.90;;;;;;5051398;28;20197;-61
2023/09/05 04:03:14;;;;;;;3.10;1.80;;;12.60;99.90;;;;;;5051462;28;20173;-60
2023/09/05 04:05:40;;;;;;;2.63;1.60;;;12.60;99.90;;;;;;5040400;28;20645;-60
2023/09/05 04:08:06;;;;;;;2.17;1.50;;;12.60;99.90;;;;;;5031143;28;20866;-60
2023/09/05 04:10:32;;;;;;;3.97;1.57;;;12.50;99.90;;;;;;5031339;28;20177;-60
2023/09/05 04:12:58;;;;;;;8.83;2.10;;;12.50;99.90;;;;;;5048575;28;20412;-60
2023/09/05 04:15:23;;;;;;;5.37;1.83;;;12.60;99.90;;;;;;5051121;28;20186;-60
2023/09/05 04:17:52;;;;;;;2.77;1.63;;;12.50;99.90;;;;;;5050832;28;20182;-60
2023/09/05 04:20:18;;;;;;;3.37;1.57;;;12.50;99.90;;;;;;5051203;28;20228;-60
2023/09/05 04:22:45;;;;;;;4.03;1.83;;;12.50;99.90;;;;;;5033179;28;20436;-60
2023/09/05 04:25:10;;;;;;;6.40;2.43;;;12.50;99.90;;;;;;5038716;28;20424;-60
2023/09/05 04:27:36;;;;;;;7.00;1.53;;;12.40;99.90;;;;;;5037283;28;20581;-60
2023/09/05 04:30:03;;;;;;;4.43;2.37;;;12.40;99.90;;;;;;5051343;28;20194;-60
2023/09/05 04:32:32;;;;;;;4.20;2.20;;;12.40;99.90;;;;;;5045749;28;20597;-60
2023/09/05 04:35:00;;;;;;;2.00;1.47;;;12.30;99.90;;;;;;5037071;28;20959;-60
2023/09/05 04:37:26;;;;;;;4.70;1.83;;;12.30;99.90;;;;;;5049385;28;20455;-60
2023/09/05 04:39:52;;;;;;;3.43;1.83;;;12.30;99.90;;;;;;5050684;28;20412;-60
2023/09/05 04:42:18;;;;;;;7.20;2.13;;;12.30;99.90;;;;;;5037536;28;20427;-60
2023/09/05 04:44:43;;;;;;;3.27;2.13;;;12.20;99.90;;;;;;5050674;28;20424;-60
2023/09/05 04:47:23;;;;;;;3.70;2.03;;;12.20;99.90;;;;;;5050808;28;20195;-60
2023/09/05 04:49:53;;;;;;;7.10;2.00;;;12.30;99.90;;;;;;5037100;28;20593;-60
2023/09/05 04:52:20;;;;;;;4.53;1.87;;;12.20;99.90;;;;;;5033552;28;20449;-60
2023/09/05 04:54:46;;;;;;;4.07;1.83;;;12.20;99.90;;;;;;5035654;28;20904;-61
2023/09/05 04:57:13;;;;;;;3.00;1.67;;;12.30;99.90;;;;;;5050979;28;20416;-60
2023/09/05 04:59:40;;;;;;;4.20;2.13;;;12.30;99.90;;;;;;5050542;28;20420;-60
2023/09/05 05:02:06;;;;;;;4.97;2.43;;;12.30;99.90;;;;;;5050353;28;20574;-60
2023/09/05 05:04:31;;;;;;;3.47;1.53;;;12.30;99.90;;;;;;5050140;28;21232;-60
2023/09/05 05:06:57;;;;;;;2.67;1.67;;;12.30;99.90;;;;;;5044098;28;20547;-61
2023/09/05 05:09:23;;;;;;;3.67;1.67;;;12.30;99.90;;;;;;5030851;28;20214;-60
2023/09/05 05:11:49;;;;;;;4.70;1.87;;;12.30;99.90;;;;;;5038289;28;20228;-60
2023/09/05 05:14:14;;;;;;;5.97;2.20;;;12.30;99.90;;;;;;5048634;28;20889;-61
2023/09/05 05:16:43;;;;;;;3.23;2.03;;;12.20;99.90;;;;;;5038322;28;20178;-60
2023/09/05 05:19:12;;;;;;;3.43;1.93;;;12.30;99.90;;;;;;5037148;28;20186;-60
2023/09/05 05:21:38;;;;;;;5.40;1.83;;;12.30;99.90;;;;;;5041298;28;20417;-60
2023/09/05 05:24:05;;;;;;;7.53;2.47;;;12.40;99.90;;;;;;5035541;28;20440;-61
2023/09/05 05:26:31;;;;;;;5.30;2.90;;;12.40;99.90;;;;;;5038486;28;20585;-60
2023/09/05 05:28:56;;;;;;;2.80;1.93;;;12.40;99.90;;;;;;5048685;28;20525;-61
2023/09/05 05:31:22;;;;;;;10.70;3.00;;;12.60;99.90;;;;;;5040263;28;20193;-60
2023/09/05 05:33:48;;;;;;;8.10;2.80;;;12.50;99.90;;;;;;5039056;28;20179;-61
2023/09/05 05:36:14;;;;;;;5.23;3.17;;;12.60;99.90;;;;;;5042827;28;20640;-61
2023/09/05 05:38:39;;;;;;;6.20;2.80;;;12.60;99.90;;;;;;5054410;28;20185;-61
2023/09/05 05:41:09;;;;;;;6.37;2.50;;;12.60;99.90;;;;;;5053743;28;20177;-61
2023/09/05 05:43:35;;;;;;;6.60;2.80;;;12.70;99.90;;;;;;5052172;28;20265;-60
2023/09/05 05:46:02;;;;;;;2.80;1.90;;;12.70;99.90;;;;;;5042355;28;20531;-61
2023/09/05 05:48:27;;;;;;;6.07;2.23;;;12.80;99.90;;;;;;5054229;28;20416;-60
2023/09/05 05:50:53;;;;;;;4.40;2.40;;;12.80;99.90;;;;;;5053737;28;20549;-61
2023/09/05 05:53:23;;;;;;;8.13;2.07;;;12.90;99.90;;;;;;5040202;28;20178;-61
2023/09/05 05:55:49;;;;;;;4.80;2.10;;;12.90;99.90;;;;;;5023193;28;20265;-61
2023/09/05 05:58:15;;;;;;;3.17;1.83;;;13.10;99.90;;;;;;5049368;28;20495;-61
2023/09/05 06:00:50;;;;;;;4.63;2.40;;;13.10;99.90;;;;;;5053585;28;20413;-61
2023/09/05 06:03:19;;;;;;;5.40;2.50;;;13.10;99.90;;;;;;5053777;28;20404;-61
2023/09/05 06:05:45;;;;;;;6.50;2.03;;;13.20;99.90;;;;;;5053488;28;20447;-60
2023/09/05 06:08:11;;;;;;;3.57;1.90;;;13.30;99.90;;;;;;5036792;28;20448;-60
2023/09/05 06:10:37;;;;;;;8.90;2.33;;;13.40;99.90;;;;;;5033371;28;20452;-60
2023/09/05 06:13:04;;;;;;;5.90;2.00;;;13.50;99.90;;;;;;5050820;28;20525;-60
2023/09/05 06:15:33;;;;;;;4.57;2.50;;;13.60;99.90;;;;;;5053517;28;20253;-60
2023/09/05 06:18:00;;;;;;;5.57;3.10;;;13.80;99.90;;;;;;5029194;28;20965;-60
2023/09/05 06:20:25;;;;;;;4.50;2.13;;;13.90;99.90;;;;;;5033628;28;20511;-60
2023/09/05 06:22:51;;;;;;;4.17;1.87;;;14.00;99.90;;;;;;5035925;28;20504;-61
2023/09/05 06:25:17;;;;;;;10.23;2.20;;;14.10;99.90;;;;;;5022583;28;20233;-60
2023/09/05 06:27:43;;;;;;;4.70;2.27;;;14.10;99.90;;;;;;5024481;28;20252;-60
2023/09/05 06:30:10;;;;;;;10.10;2.50;;;14.20;99.90;;;;;;5029737;28;20699;-61
2023/09/05 06:32:36;;;;;;;7.20;2.50;;;14.30;99.90;;;;;;5029194;28;20559;-61
2023/09/05 06:35:01;;;;;;;3.23;2.17;;;14.50;99.90;;;;;;5031412;28;20512;-60
2023/09/05 06:37:31;;;;;;;9.30;2.70;;;14.70;99.90;;;;;;5027733;28;20630;-60
2023/09/05 06:39:57;;;;;;;3.53;1.93;;;14.90;99.90;;;;;;5024052;28;20182;-60
2023/09/05 06:42:23;;;;;;;4.07;1.73;;;15.00;99.90;;;;;;5029830;28;20487;-61
2023/09/05 06:44:49;;;;;;;3.63;1.77;;;15.20;99.90;;;;;;5024193;28;20674;-61
2023/09/05 06:47:15;;;;;;;4.13;2.20;;;15.30;99.90;;;;;;5023935;28;20432;-61
2023/09/05 06:49:40;;;;;;;2.07;1.30;;;15.50;99.90;;;;;;5031585;28;20175;-60
2023/09/05 06:52:06;;;;;;;5.80;2.37;;;15.80;99.90;;;;;;5027478;28;20202;-60
2023/09/05 06:54:32;;;;;;;13.50;2.70;;;16.10;99.90;;;;;;5030005;28;20911;-61
2023/09/05 06:56:58;;;;;;;4.23;1.80;;;16.20;99.90;;;;;;5032704;28;20175;-61
2023/09/05 06:59:24;;;;;;;4.70;1.77;;;16.40;99.90;;;;;;5020698;28;20418;-61
2023/09/05 07:01:49;;;;;;;2.57;1.50;;;16.50;99.90;;;;;;5031670;28;20194;-60
2023/09/05 07:04:15;;;;;;;3.50;1.50;;;16.70;99.90;;;;;;5020305;28;20265;-61
2023/09/05 07:06:41;;;;;;;4.07;2.20;;;17.00;99.90;;;;;;5029814;28;20183;-61
2023/09/05 07:09:07;;;;;;;4.73;1.93;;;17.20;99.90;;;;;;5032427;28;20618;-61
2023/09/05 07:11:33;;;;;;;3.10;1.70;;;17.70;99.90;;;;;;5029141;28;20631;-61
2023/09/05 07:13:59;;;;;;;4.90;2.30;;;18.20;99.90;;;;;;5025370;28;20421;-61
2023/09/05 07:16:24;;;;;;;3.10;1.30;;;18.70;99.90;;;;;;5022264;28;20425;-61
2023/09/05 07:18:51;;;;;;;2.93;1.30;;;19.00;99.90;;;;;;5026400;28;20179;-61
2023/09/05 07:21:16;;;;;;;8.07;2.33;;;19.30;99.90;;;;;;5032143;28;20663;-61
2023/09/05 07:23:42;;;;;;;3.37;1.80;;;19.90;99.90;;;;;;5032128;28;20420;-61
2023/09/05 07:26:08;;;;;;;4.17;1.87;;;20.60;99.00;;;;;;5018381;28;20635;-61
2023/09/05 07:28:34;;;;;;;3.30;1.60;;;21.90;97.80;;;;;;5032602;28;20201;-61
2023/09/05 07:31:03;;;;;;;3.70;1.93;;;23.20;95.70;;;;;;5018675;28;20239;-62
2023/09/05 07:33:29;;;;;;;5.53;1.70;;;23.60;93.90;;;;;;5029389;28;20937;-62
2023/09/05 07:35:55;;;;;;;3.37;1.40;;;24.60;92.80;;;;;;5028456;28;20416;-62
2023/09/05 07:38:23;;;;;;;3.13;1.20;;;25.00;91.80;;;;;;5028155;28;20450;-61
2023/09/05 07:41:00;;;;;;;2.83;1.50;;;25.00;91.40;;;;;;5031824;28;20321;-62
2023/09/05 07:43:26;;;;;;;3.67;1.47;;;25.00;91.50;;;;;;5018579;28;20202;-61
2023/09/05 07:45:52;;;;;;;3.70;1.70;;;25.30;91.40;;;;;;5023948;28;20175;-61
2023/09/05 07:48:17;;;;;;;4.03;1.50;;;25.60;90.20;;;;;;5025627;28;20182;-61
2023/09/05 07:50:43;;;;;;;3.10;1.37;;;25.70;90.30;;;;;;5016931;28;20193;-61
2023/09/05 07:53:09;;;;;;;3.23;1.30;;;24.80;89.70;;;;;;5025953;28;20506;-61
2023/09/05 07:55:34;;;;;;;2.73;1.33;;;24.70;91.30;;;;;;5024691;28;20181;-61
2023/09/05 07:58:00;;;;;;;4.33;1.47;;;24.90;90.80;;;;;;5018744;28;20218;-61
2023/09/05 08:00:26;;;;;;;4.53;1.40;;;24.70;91.70;;;;;;5025001;28;20205;-61
2023/09/05 08:02:52;;;;;;;2.70;1.37;;;25.10;91.10;;;;;;5025155;28;20209;-61
2023/09/05 08:05:19;;;;;;;1.97;0.83;;;25.10;90.80;;;;;;5019010;28;20223;-61
2023/09/05 08:07:45;;;;;;;6.03;1.50;;;25.50;89.40;;;;;;5031331;28;20260;-61
2023/09/05 08:10:11;;;;;;;3.73;1.23;;;25.40;88.80;;;;;;5031521;28;20595;-61
2023/09/05 08:12:37;;;;;;;2.43;1.20;;;25.40;89.20;;;;;;5017907;28;20210;-61
2023/09/05 08:15:05;;;;;;;6.10;1.23;;;25.70;88.50;;;;;;5023863;28;20171;-61
2023/09/05 08:17:31;;;;;;;3.60;1.50;;;25.20;88.00;;;;;;5023433;28;20520;-61
2023/09/05 08:19:58;;;;;;;2.93;1.30;;;25.30;89.60;;;;;;5028223;28;20771;-61
2023/09/05 08:22:24;;;;;;;3.23;1.43;;;25.20;89.00;;;;;;5030924;28;20242;-61
2023/09/05 08:24:50;;;;;;;3.30;1.30;;;25.20;89.50;;;;;;5026003;28;20182;-67
2023/09/05 08:27:16;;;;;;;2.10;1.03;;;25.50;88.30;;;;;;5022085;28;20193;-67
2023/09/05 08:29:42;;;;;;;1.90;1.10;;;25.60;87.30;;;;;;5027123;28;20185;-67
2023/09/05 08:32:08;;;;;;;2.05;1.17;;;25.80;86.80;;;;;;5026908;28;20197;-67
2023/09/05 08:34:33;;;;;;;2.45;1.30;;;26.30;85.10;;;;;;5023161;28;20179;-67
2023/09/05 08:36:59;;;;;;;2.80;1.20;;;26.20;85.80;;;;;;5028129;28;20202;-67
2023/09/05 08:39:26;;;;;;;3.13;1.42;;;26.60;83.60;;;;;;5023995;28;20177;-67
2023/09/05 08:41:52;;;;;;;2.33;1.20;;;26.20;84.00;;;;;;5022977;28;20186;-67
2023/09/05 08:44:18;;;;;;;3.13;1.40;;;26.60;85.30;;;;;;5022479;28;20178;-66
2023/09/05 08:46:45;;;;;;;3.45;1.17;;;26.50;83.90;;;;;;5017815;28;20225;-67
2023/09/05 08:49:11;;;;;;;2.70;1.15;;;27.00;83.30;;;;;;5022971;28;20201;-67
2023/09/05 08:51:39;;;;;;;2.75;1.33;;;26.40;85.40;;;;;;5024865;28;20331;-67
2023/09/05 08:54:06;;;;;;;3.10;1.35;;;26.20;83.10;;;;;;5010772;28;20526;-67
2023/09/05 08:56:32;;;;;;;2.25;1.13;;;26.50;84.30;;;;;;5024119;28;20208;-61
2023/09/05 08:59:01;;;;;;;2.08;1.25;;;26.60;83.00;;;;;;5020258;28;20534;-61
2023/09/05 09:01:28;;;;;;;2.22;1.10;;;26.20;84.40;;;;;;5018899;28;20909;-61
2023/09/05 09:03:54;;;;;;;4.60;1.30;;;26.50;84.00;;;;;;5029097;28;20188;-61
2023/09/05 09:06:24;;;;;;;3.00;1.77;;;26.50;85.20;;;;;;5015449;28;20186;-61
2023/09/05 09:08:50;;;;;;;4.03;1.63;;;25.90;84.10;;;;;;5030287;28;20177;-62
2023/09/05 09:11:19;;;;;;;2.67;1.13;;;26.20;85.40;;;;;;5029066;28;20225;-62
2023/09/05 09:13:49;;;;;;;2.15;0.90;;;26.70;84.40;;;;;;5019596;28;20233;-62
2023/09/05 09:16:19;;;;;;;1.90;0.95;;;27.10;85.10;;;;;;5022897;28;20475;-62
2023/09/05 09:18:48;;;;;;;5.75;2.05;;;27.30;83.80;;;;;;5022889;28;20260;-62
2023/09/05 09:21:17;;;;;;;6.72;1.20;;;27.10;83.00;;;;;;5025141;28;20277;-62
2023/09/05 09:23:44;;;;;;;2.35;0.90;;;26.80;80.60;;;;;;5023077;28;20173;-61
2023/09/05 09:26:10;;;;;;;2.10;1.13;;;26.60;82.60;;;;;;5029926;28;20182;-62
2023/09/05 09:28:37;;;;;;;2.92;1.20;;;27.10;81.80;;;;;;5030662;28;20208;-61
2023/09/05 09:31:13;;;;;;;2.08;0.80;;;26.90;81.10;;;;;;5024161;28;20221;-62
2023/09/05 09:33:40;;;;;;;3.42;1.42;;;27.20;80.40;;;;;;5025064;28;20208;-62
2023/09/05 09:36:08;;;;;;;6.00;1.83;;;26.80;82.70;;;;;;5022736;28;20511;-62
2023/09/05 09:38:35;;;;;;;2.00;1.27;;;27.00;83.30;;;;;;5024302;28;20174;-62
2023/09/05 09:41:03;;;;;;;4.32;1.10;;;27.10;82.50;;;;;;5018408;28;20599;-62
2023/09/05 09:43:30;;;;;;;1.80;0.80;;;27.30;81.60;;;;;;5017295;28;20616;-62
2023/09/05 09:46:00;;;;;;;3.13;1.40;;;27.30;82.50;;;;;;5029471;28;20713;-62
2023/09/05 09:48:28;;;;;;;2.95;1.67;;;27.80;81.20;;;;;;5017386;28;20205;-62
2023/09/05 09:50:56;;;;;;;3.22;1.38;;;27.50;81.20;;;;;;5020491;28;20213;-61
2023/09/05 09:53:34;;;;;;;2.92;1.50;;;27.20;80.10;;;;;;5023408;28;20198;-61
2023/09/05 09:56:11;;;;;;;2.25;1.10;;;26.80;85.50;;;;;;5021903;28;20180;-61
2023/09/05 09:58:43;;;;;;;3.55;1.40;;;26.50;83.70;;;;;;5024031;28;20171;-61
2023/09/05 10:01:11;;;;;;;2.60;1.00;;;26.30;82.90;;;;;;5023295;28;20232;-61
2023/09/05 10:03:39;;;;;;;2.40;1.30;;;26.10;83.80;;;;;;5022483;28;20187;-62
2023/09/05 10:06:06;;;;;;;2.33;0.90;;;25.50;84.50;;;;;;5023493;28;20630;-61
2023/09/05 10:08:35;;;;;;;4.60;1.47;;;25.60;89.30;;;;;;5029601;28;20789;-61
2023/09/05 10:11:02;;;;;;;6.43;1.43;;;25.20;86.50;;;;;;5027562;28;20193;-61
2023/09/05 10:13:32;;;;;;;3.43;1.50;;;25.30;90.20;;;;;;5018439;28;20174;-61
2023/09/05 10:16:01;;;;;;;2.40;1.10;;;25.40;88.00;;;;;;5016261;28;20432;-61
2023/09/05 10:18:29;;;;;;;2.17;1.20;;;25.40;86.30;;;;;;5033233;28;20193;-61
2023/09/05 10:20:56;;;;;;;3.53;1.00;;;25.20;87.30;;;;;;5033860;28;20835;-61
2023/09/05 10:23:24;;;;;;;2.67;1.30;;;25.40;86.90;;;;;;5028152;28;20432;-61
2023/09/05 10:25:50;;;;;;;2.93;1.03;;;25.30;88.30;;;;;;5030464;28;20521;-61
2023/09/05 10:28:17;;;;;;;2.27;1.20;;;25.10;85.90;;;;;;5024023;28;20743;-61
2023/09/05 10:30:49;;;;;;;2.10;1.13;;;25.20;90.40;;;;;;5030180;28;20405;-61
2023/09/05 10:33:14;;;;;;;3.13;1.50;;;25.40;88.30;;;;;;5029994;28;20528;-61
2023/09/05 10:35:44;;;;;;;2.30;1.03;;;25.40;87.60;;;;;;5022570;28;20532;-61
2023/09/05 10:38:12;;;;;;;2.33;1.07;;;25.40;88.70;;;;;;5025131;28;20189;-61
2023/09/05 10:40:39;;;;;;;2.10;1.00;;;25.60;85.80;;;;;;5033111;28;20483;-61
2023/09/05 10:43:07;;;;;;;1.93;1.03;;;25.50;88.70;;;;;;5033237;28;20455;-61
2023/09/05 10:45:37;;;;;;;2.70;1.60;;;25.70;86.10;;;;;;5019489;28;20417;-61
2023/09/05 10:48:11;;;;;;;2.00;1.03;;;25.70;90.50;;;;;;5033252;28;20421;-61
2023/09/05 10:51:10;;;;;;;2.37;1.10;;;25.80;85.40;;;;;;5033123;28;20440;-61
2023/09/05 10:53:49;;;;;;;2.33;1.23;;;25.70;86.80;;;;;;5020384;28;20439;-61
2023/09/05 10:56:43;;;;;;;3.37;1.30;;;25.80;89.80;;;;;;5032745;28;20427;-61
2023/09/05 10:59:23;;;;;;;2.63;1.23;;;25.90;85.90;;;;;;5021892;28;20430;-61
2023/09/05 11:01:52;;;;;;;3.30;1.07;;;26.00;89.50;;;;;;5031921;28;20424;-61
2023/09/05 11:04:20;;;;;;;3.27;1.27;;;26.20;87.30;;;;;;5019339;28;20217;-61
2023/09/05 11:06:54;;;;;;;4.77;1.30;;;26.30;86.80;;;;;;5019613;28;20408;-61
2023/09/05 11:09:20;;;;;;;2.23;1.00;;;26.40;86.40;;;;;;5032701;28;20174;-61
2023/09/05 11:11:45;;;;;;;5.13;1.10;;;26.40;86.50;;;;;;5032575;28;20281;-61
2023/09/05 11:14:11;;;;;;;2.57;1.17;;;26.50;86.00;;;;;;5019551;28;20187;-61
2023/09/05 11:16:49;;;;;;;5.50;1.10;;;26.40;85.10;;;;;;5032162;28;20182;-61
2023/09/05 11:19:37;;;;;;;2.80;1.37;;;26.20;86.10;;;;;;5030281;28;20188;-61
2023/09/05 11:22:15;;;;;;;1.80;0.80;;;26.50;84.40;;;;;;5024898;28;20190;-61
2023/09/05 11:24:47;;;;;;;2.17;0.77;;;26.70;85.50;;;;;;5019766;28;20177;-61
2023/09/05 11:27:14;;;;;;;2.60;1.20;;;26.60;81.80;;;;;;5025246;28;20228;-61
2023/09/05 11:29:41;;;;;;;3.60;0.93;;;26.60;82.80;;;;;;5019814;28;20193;-61
2023/09/05 11:32:08;;;;;;;2.10;1.00;;;26.70;82.90;;;;;;5024548;28;20202;-61
2023/09/05 11:34:34;;;;;;;2.47;1.10;;;26.90;83.00;;;;;;5032018;28;20642;-61
2023/09/05 11:37:00;;;;;;;2.20;1.20;;;26.80;83.40;;;;;;5018616;28;20203;-61
2023/09/05 11:39:27;;;;;;;8.90;1.00;;;26.80;84.30;;;;;;5024452;28;20178;-61
2023/09/05 11:41:57;;;;;;;2.00;1.30;;;26.90;83.90;;;;;;5025114;28;20284;-61
2023/09/05 11:44:39;;;;;;;3.10;1.20;;;26.90;86.30;;;;;;5020036;28;20680;-61
2023/09/05 11:47:05;;;;;;;1.60;0.80;;;27.10;86.80;;;;;;5027053;28;20675;-61
2023/09/05 11:49:35;;;;;;;3.50;1.30;;;27.20;83.00;;;;;;5023199;28;20182;-61
2023/09/05 11:52:03;;;;;;;2.00;1.10;;;27.30;83.40;;;;;;5026722;28;20758;-61
2023/09/05 11:54:30;;;;;;;2.00;0.90;;;27.50;84.60;;;;;;5024859;28;20190;-61
2023/09/05 11:56:56;;;;;;;4.13;1.52;;;27.60;81.10;;;;;;5018404;28;20575;-61
2023/09/05 11:59:23;;;;;;;2.55;1.27;;;27.50;84.60;;;;;;5020523;28;20214;-61
2023/09/05 12:01:50;;;;;;;3.38;1.00;;;27.80;82.90;;;;;;5025043;28;20192;-61
2023/09/05 12:04:16;;;;;;;6.03;1.13;;;28.10;81.40;;;;;;5024044;28;20215;-61
2023/09/05 12:06:42;;;;;;;2.28;1.15;;;27.90;84.40;;;;;;5017959;28;20201;-61
2023/09/05 12:09:09;;;;;;;9.65;1.55;;;28.10;81.30;;;;;;5031229;28;20351;-61
2023/09/05 12:11:35;;;;;;;2.10;1.10;;;27.80;83.00;;;;;;5025177;28;20257;-61
2023/09/05 12:14:01;;;;;;;1.88;1.00;;;28.10;80.40;;;;;;5023595;28;20635;-61
2023/09/05 12:16:28;;;;;;;3.53;1.15;;;28.40;78.80;;;;;;5017704;28;20182;-61
2023/09/05 12:19:01;;;;;;;3.30;1.27;;;28.30;80.10;;;;;;5019358;28;20175;-61
2023/09/05 12:21:43;;;;;;;2.58;1.10;;;28.10;80.50;;;;;;5024860;28;20175;-61
2023/09/05 12:24:23;;;;;;;1.92;1.00;;;28.10;81.00;;;;;;5026193;28;20649;-61
2023/09/05 12:26:50;;;;;;;8.98;1.40;;;28.00;80.40;;;;;;5036601;28;20224;-61
2023/09/05 12:29:21;;;;;;;3.60;1.10;;;27.90;80.60;;;;;;5036400;28;20682;-61
2023/09/05 12:31:50;;;;;;;2.60;1.13;;;27.90;81.30;;;;;;5034134;28;20796;-61
2023/09/05 12:34:17;;;;;;;3.97;1.20;;;27.90;81.90;;;;;;5037160;28;20261;-61
2023/09/05 12:36:43;;;;;;;3.25;1.48;;;27.80;82.10;;;;;;5042927;28;20185;-61
2023/09/05 12:39:08;;;;;;;2.58;1.23;;;28.00;82.20;;;;;;5050655;28;20181;-61
2023/09/05 12:41:34;;;;;;;2.28;1.27;;;28.20;81.30;;;;;;5050888;28;20235;-61
2023/09/05 12:44:01;;;;;;;5.95;1.25;;;28.20;81.00;;;;;;5048550;28;20186;-61
2023/09/05 12:46:29;;;;;;;2.95;1.30;;;28.20;81.20;;;;;;5043344;28;20192;-61